sensor_id;sensor_type;location;lat;lon;timestamp;P1;durP1;ratioP1;P2;durP2;ratioP2
44197;SDS011;30157;55.512;37.764;2024-02-26T00:02:24;6.43;;;2.83;;
44197;SDS011;30157;55.512;37.764;2024-02-26T00:04:50;6.50;;;2.60;;
44197;SDS011;30157;55.512;37.764;2024-02-26T00:07:16;6.05;;;2.78;;
44197;SDS011;30157;55.512;37.764;2024-02-26T00:09:41;5.93;;;2.95;;
44197;SDS011;30157;55.512;37.764;2024-02-26T00:12:07;7.97;;;3.05;;
44197;SDS011;30157;55.512;37.764;2024-02-26T00:14:33;7.70;;;3.17;;
44197;SDS011;30157;55.512;37.764;2024-02-26T00:16:59;4.90;;;2.60;;
44197;SDS011;30157;55.512;37.764;2024-02-26T00:19:25;10.20;;;3.17;;
44197;SDS011;30157;55.512;37.764;2024-02-26T00:21:51;5.85;;;2.78;;
44197;SDS011;30157;55.512;37.764;2024-02-26T00:24:19;3.90;;;2.40;;
44197;SDS011;30157;55.512;37.764;2024-02-26T00:26:44;5.43;;;2.80;;
44197;SDS011;30157;55.512;37.764;2024-02-26T00:29:10;5.63;;;2.67;;
44197;SDS011;30157;55.512;37.764;2024-02-26T00:31:36;4.43;;;2.25;;
44197;SDS011;30157;55.512;37.764;2024-02-26T00:34:03;7.63;;;2.58;;
44197;SDS011;30157;55.512;37.764;2024-02-26T00:36:29;6.03;;;2.58;;
44197;SDS011;30157;55.512;37.764;2024-02-26T00:38:55;5.90;;;2.58;;
44197;SDS011;30157;55.512;37.764;2024-02-26T00:41:20;5.15;;;2.70;;
44197;SDS011;30157;55.512;37.764;2024-02-26T00:43:46;8.00;;;2.95;;
44197;SDS011;30157;55.512;37.764;2024-02-26T00:46:12;7.82;;;2.58;;
44197;SDS011;30157;55.512;37.764;2024-02-26T00:48:38;4.15;;;2.10;;
44197;SDS011;30157;55.512;37.764;2024-02-26T00:51:04;4.65;;;2.40;;
44197;SDS011;30157;55.512;37.764;2024-02-26T00:53:31;6.88;;;2.45;;
44197;SDS011;30157;55.512;37.764;2024-02-26T00:55:57;5.15;;;2.53;;
44197;SDS011;30157;55.512;37.764;2024-02-26T00:58:27;4.93;;;2.90;;
44197;SDS011;30157;55.512;37.764;2024-02-26T01:00:52;6.43;;;2.33;;
44197;SDS011;30157;55.512;37.764;2024-02-26T01:03:18;6.05;;;2.38;;
44197;SDS011;30157;55.512;37.764;2024-02-26T01:05:44;3.97;;;1.95;;
44197;SDS011;30157;55.512;37.764;2024-02-26T01:08:10;4.70;;;2.22;;
44197;SDS011;30157;55.512;37.764;2024-02-26T01:10:36;7.50;;;2.58;;
44197;SDS011;30157;55.512;37.764;2024-02-26T01:13:02;4.72;;;2.15;;
44197;SDS011;30157;55.512;37.764;2024-02-26T01:15:28;3.00;;;1.50;;
44197;SDS011;30157;55.512;37.764;2024-02-26T01:17:53;4.55;;;2.47;;
44197;SDS011;30157;55.512;37.764;2024-02-26T01:20:19;5.28;;;2.38;;
44197;SDS011;30157;55.512;37.764;2024-02-26T01:22:45;3.95;;;2.20;;
44197;SDS011;30157;55.512;37.764;2024-02-26T01:25:11;6.28;;;2.20;;
44197;SDS011;30157;55.512;37.764;2024-02-26T01:27:37;4.40;;;2.03;;
44197;SDS011;30157;55.512;37.764;2024-02-26T01:30:03;4.00;;;2.13;;
44197;SDS011;30157;55.512;37.764;2024-02-26T01:32:30;4.30;;;1.95;;
44197;SDS011;30157;55.512;37.764;2024-02-26T01:34:56;6.57;;;2.38;;
44197;SDS011;30157;55.512;37.764;2024-02-26T01:37:22;3.58;;;1.77;;
44197;SDS011;30157;55.512;37.764;2024-02-26T01:39:48;3.55;;;2.05;;
44197;SDS011;30157;55.512;37.764;2024-02-26T01:42:13;4.13;;;1.90;;
44197;SDS011;30157;55.512;37.764;2024-02-26T01:44:40;6.00;;;2.55;;
44197;SDS011;30157;55.512;37.764;2024-02-26T01:47:07;5.35;;;2.05;;
44197;SDS011;30157;55.512;37.764;2024-02-26T01:49:34;3.55;;;2.00;;
44197;SDS011;30157;55.512;37.764;2024-02-26T01:52:00;4.22;;;1.85;;
44197;SDS011;30157;55.512;37.764;2024-02-26T01:54:28;3.35;;;2.00;;
44197;SDS011;30157;55.512;37.764;2024-02-26T01:56:55;7.07;;;2.30;;
44197;SDS011;30157;55.512;37.764;2024-02-26T01:59:22;4.38;;;1.90;;
44197;SDS011;30157;55.512;37.764;2024-02-26T02:01:48;4.55;;;2.10;;
44197;SDS011;30157;55.512;37.764;2024-02-26T02:04:20;4.05;;;1.83;;
44197;SDS011;30157;55.512;37.764;2024-02-26T02:06:46;3.92;;;1.80;;
44197;SDS011;30157;55.512;37.764;2024-02-26T02:09:13;6.68;;;2.47;;
44197;SDS011;30157;55.512;37.764;2024-02-26T02:11:39;4.93;;;1.90;;
44197;SDS011;30157;55.512;37.764;2024-02-26T02:14:05;5.43;;;2.03;;
44197;SDS011;30157;55.512;37.764;2024-02-26T02:16:31;5.45;;;2.13;;
44197;SDS011;30157;55.512;37.764;2024-02-26T02:18:58;7.75;;;2.58;;
44197;SDS011;30157;55.512;37.764;2024-02-26T02:21:24;3.78;;;2.20;;
44197;SDS011;30157;55.512;37.764;2024-02-26T02:23:50;4.10;;;1.90;;
44197;SDS011;30157;55.512;37.764;2024-02-26T02:26:16;3.97;;;2.17;;
44197;SDS011;30157;55.512;37.764;2024-02-26T02:28:42;4.68;;;1.90;;
44197;SDS011;30157;55.512;37.764;2024-02-26T02:31:08;5.20;;;2.53;;
44197;SDS011;30157;55.512;37.764;2024-02-26T02:33:34;6.70;;;2.05;;
44197;SDS011;30157;55.512;37.764;2024-02-26T02:36:00;6.80;;;2.10;;
44197;SDS011;30157;55.512;37.764;2024-02-26T02:38:26;8.25;;;2.47;;
44197;SDS011;30157;55.512;37.764;2024-02-26T02:40:55;7.15;;;2.38;;
44197;SDS011;30157;55.512;37.764;2024-02-26T02:43:21;9.48;;;3.60;;
44197;SDS011;30157;55.512;37.764;2024-02-26T02:45:47;5.25;;;2.47;;
44197;SDS011;30157;55.512;37.764;2024-02-26T02:48:12;6.82;;;2.53;;
44197;SDS011;30157;55.512;37.764;2024-02-26T02:50:38;7.18;;;2.50;;
44197;SDS011;30157;55.512;37.764;2024-02-26T02:53:04;8.88;;;2.35;;
44197;SDS011;30157;55.512;37.764;2024-02-26T02:55:30;9.48;;;2.67;;
44197;SDS011;30157;55.512;37.764;2024-02-26T02:57:55;6.53;;;2.42;;
44197;SDS011;30157;55.512;37.764;2024-02-26T03:00:21;8.55;;;2.58;;
44197;SDS011;30157;55.512;37.764;2024-02-26T03:02:48;5.15;;;2.70;;
44197;SDS011;30157;55.512;37.764;2024-02-26T03:05:15;9.50;;;2.60;;
44197;SDS011;30157;55.512;37.764;2024-02-26T03:07:41;6.80;;;2.05;;
44197;SDS011;30157;55.512;37.764;2024-02-26T03:10:06;6.90;;;2.70;;
44197;SDS011;30157;55.512;37.764;2024-02-26T03:12:33;8.98;;;3.17;;
44197;SDS011;30157;55.512;37.764;2024-02-26T03:14:59;7.53;;;2.50;;
44197;SDS011;30157;55.512;37.764;2024-02-26T03:17:30;10.25;;;2.97;;
44197;SDS011;30157;55.512;37.764;2024-02-26T03:19:56;7.95;;;2.47;;
44197;SDS011;30157;55.512;37.764;2024-02-26T03:22:21;7.47;;;2.35;;
44197;SDS011;30157;55.512;37.764;2024-02-26T03:24:47;9.70;;;3.35;;
44197;SDS011;30157;55.512;37.764;2024-02-26T03:27:14;6.78;;;2.67;;
44197;SDS011;30157;55.512;37.764;2024-02-26T03:29:39;5.60;;;2.30;;
44197;SDS011;30157;55.512;37.764;2024-02-26T03:32:06;6.90;;;2.92;;
44197;SDS011;30157;55.512;37.764;2024-02-26T03:34:32;10.50;;;2.83;;
44197;SDS011;30157;55.512;37.764;2024-02-26T03:37:01;9.82;;;2.70;;
44197;SDS011;30157;55.512;37.764;2024-02-26T03:39:27;6.80;;;2.45;;
44197;SDS011;30157;55.512;37.764;2024-02-26T03:41:53;8.07;;;2.47;;
44197;SDS011;30157;55.512;37.764;2024-02-26T03:44:19;7.05;;;3.13;;
44197;SDS011;30157;55.512;37.764;2024-02-26T03:46:45;13.18;;;3.08;;
44197;SDS011;30157;55.512;37.764;2024-02-26T03:49:11;12.85;;;3.50;;
44197;SDS011;30157;55.512;37.764;2024-02-26T03:51:37;8.18;;;2.78;;
44197;SDS011;30157;55.512;37.764;2024-02-26T03:54:03;6.35;;;2.75;;
44197;SDS011;30157;55.512;37.764;2024-02-26T03:56:28;6.18;;;2.78;;
44197;SDS011;30157;55.512;37.764;2024-02-26T03:58:54;8.52;;;3.30;;
44197;SDS011;30157;55.512;37.764;2024-02-26T04:01:20;7.10;;;3.35;;
44197;SDS011;30157;55.512;37.764;2024-02-26T04:03:46;9.27;;;3.03;;
44197;SDS011;30157;55.512;37.764;2024-02-26T04:06:11;9.32;;;2.90;;
44197;SDS011;30157;55.512;37.764;2024-02-26T04:08:40;8.60;;;2.58;;
44197;SDS011;30157;55.512;37.764;2024-02-26T04:11:06;10.32;;;3.00;;
44197;SDS011;30157;55.512;37.764;2024-02-26T04:13:33;7.32;;;2.90;;
44197;SDS011;30157;55.512;37.764;2024-02-26T04:15:59;8.95;;;2.72;;
44197;SDS011;30157;55.512;37.764;2024-02-26T04:18:27;8.95;;;2.97;;
44197;SDS011;30157;55.512;37.764;2024-02-26T04:20:53;8.15;;;2.88;;
44197;SDS011;30157;55.512;37.764;2024-02-26T04:23:19;8.90;;;2.67;;
44197;SDS011;30157;55.512;37.764;2024-02-26T04:25:45;7.00;;;3.22;;
44197;SDS011;30157;55.512;37.764;2024-02-26T04:28:12;8.05;;;3.30;;
44197;SDS011;30157;55.512;37.764;2024-02-26T04:30:37;7.03;;;2.70;;
44197;SDS011;30157;55.512;37.764;2024-02-26T04:33:03;8.88;;;2.92;;
44197;SDS011;30157;55.512;37.764;2024-02-26T04:35:29;5.55;;;3.15;;
44197;SDS011;30157;55.512;37.764;2024-02-26T04:37:55;7.72;;;2.90;;
44197;SDS011;30157;55.512;37.764;2024-02-26T04:40:21;5.88;;;2.85;;
44197;SDS011;30157;55.512;37.764;2024-02-26T04:42:47;6.63;;;3.10;;
44197;SDS011;30157;55.512;37.764;2024-02-26T04:45:12;8.00;;;3.03;;
44197;SDS011;30157;55.512;37.764;2024-02-26T04:47:38;5.13;;;2.83;;
44197;SDS011;30157;55.512;37.764;2024-02-26T04:50:04;6.65;;;2.53;;
44197;SDS011;30157;55.512;37.764;2024-02-26T04:52:31;8.30;;;3.50;;
44197;SDS011;30157;55.512;37.764;2024-02-26T04:54:56;6.97;;;2.92;;
44197;SDS011;30157;55.512;37.764;2024-02-26T04:57:22;7.68;;;3.70;;
44197;SDS011;30157;55.512;37.764;2024-02-26T04:59:48;8.43;;;3.10;;
44197;SDS011;30157;55.512;37.764;2024-02-26T05:02:13;7.18;;;3.22;;
44197;SDS011;30157;55.512;37.764;2024-02-26T05:04:39;4.70;;;2.20;;
44197;SDS011;30157;55.512;37.764;2024-02-26T05:07:05;7.00;;;3.03;;
44197;SDS011;30157;55.512;37.764;2024-02-26T05:09:31;5.97;;;3.03;;
44197;SDS011;30157;55.512;37.764;2024-02-26T05:11:57;8.75;;;3.22;;
44197;SDS011;30157;55.512;37.764;2024-02-26T05:14:23;8.10;;;2.78;;
44197;SDS011;30157;55.512;37.764;2024-02-26T05:16:48;4.95;;;2.40;;
44197;SDS011;30157;55.512;37.764;2024-02-26T05:19:14;7.80;;;3.38;;
44197;SDS011;30157;55.512;37.764;2024-02-26T05:21:40;9.85;;;3.50;;
44197;SDS011;30157;55.512;37.764;2024-02-26T05:24:06;6.20;;;3.40;;
44197;SDS011;30157;55.512;37.764;2024-02-26T05:26:31;8.90;;;3.90;;
44197;SDS011;30157;55.512;37.764;2024-02-26T05:28:57;8.25;;;3.40;;
44197;SDS011;30157;55.512;37.764;2024-02-26T05:31:25;7.25;;;3.30;;
44197;SDS011;30157;55.512;37.764;2024-02-26T05:33:52;7.13;;;2.58;;
44197;SDS011;30157;55.512;37.764;2024-02-26T05:36:18;5.82;;;2.85;;
44197;SDS011;30157;55.512;37.764;2024-02-26T05:38:45;8.73;;;3.55;;
44197;SDS011;30157;55.512;37.764;2024-02-26T05:41:11;8.45;;;3.78;;
44197;SDS011;30157;55.512;37.764;2024-02-26T05:43:37;6.47;;;3.53;;
44197;SDS011;30157;55.512;37.764;2024-02-26T05:46:03;8.25;;;3.28;;
44197;SDS011;30157;55.512;37.764;2024-02-26T05:48:29;9.50;;;3.58;;
44197;SDS011;30157;55.512;37.764;2024-02-26T05:50:54;5.50;;;2.83;;
44197;SDS011;30157;55.512;37.764;2024-02-26T05:53:20;7.75;;;3.20;;
44197;SDS011;30157;55.512;37.764;2024-02-26T05:55:46;10.50;;;3.65;;
44197;SDS011;30157;55.512;37.764;2024-02-26T05:58:12;7.32;;;3.22;;
44197;SDS011;30157;55.512;37.764;2024-02-26T06:00:37;7.38;;;3.17;;
44197;SDS011;30157;55.512;37.764;2024-02-26T06:03:03;11.60;;;4.10;;
44197;SDS011;30157;55.512;37.764;2024-02-26T06:05:29;6.13;;;3.20;;
44197;SDS011;30157;55.512;37.764;2024-02-26T06:07:55;7.22;;;3.67;;
44197;SDS011;30157;55.512;37.764;2024-02-26T06:10:20;8.35;;;3.65;;
44197;SDS011;30157;55.512;37.764;2024-02-26T06:12:47;9.93;;;3.58;;
44197;SDS011;30157;55.512;37.764;2024-02-26T06:15:13;8.73;;;4.13;;
44197;SDS011;30157;55.512;37.764;2024-02-26T06:17:39;8.95;;;3.30;;
44197;SDS011;30157;55.512;37.764;2024-02-26T06:20:04;9.95;;;3.88;;
44197;SDS011;30157;55.512;37.764;2024-02-26T06:22:32;11.23;;;3.33;;
44197;SDS011;30157;55.512;37.764;2024-02-26T06:24:57;6.53;;;3.45;;
44197;SDS011;30157;55.512;37.764;2024-02-26T06:27:23;8.43;;;3.95;;
44197;SDS011;30157;55.512;37.764;2024-02-26T06:29:49;11.90;;;4.18;;
44197;SDS011;30157;55.512;37.764;2024-02-26T06:32:15;7.30;;;3.40;;
44197;SDS011;30157;55.512;37.764;2024-02-26T06:34:41;8.20;;;4.18;;
44197;SDS011;30157;55.512;37.764;2024-02-26T06:37:10;5.57;;;3.00;;
44197;SDS011;30157;55.512;37.764;2024-02-26T06:39:35;9.20;;;3.50;;
44197;SDS011;30157;55.512;37.764;2024-02-26T06:42:01;5.28;;;2.67;;
44197;SDS011;30157;55.512;37.764;2024-02-26T06:44:27;10.50;;;3.45;;
44197;SDS011;30157;55.512;37.764;2024-02-26T06:47:00;10.35;;;3.90;;
44197;SDS011;30157;55.512;37.764;2024-02-26T06:49:26;7.80;;;3.47;;
44197;SDS011;30157;55.512;37.764;2024-02-26T06:51:53;10.90;;;3.80;;
44197;SDS011;30157;55.512;37.764;2024-02-26T06:54:19;8.20;;;3.55;;
44197;SDS011;30157;55.512;37.764;2024-02-26T06:56:45;7.15;;;3.50;;
44197;SDS011;30157;55.512;37.764;2024-02-26T06:59:11;9.23;;;4.00;;
44197;SDS011;30157;55.512;37.764;2024-02-26T07:01:36;7.35;;;3.58;;
44197;SDS011;30157;55.512;37.764;2024-02-26T07:04:02;6.13;;;3.33;;
44197;SDS011;30157;55.512;37.764;2024-02-26T07:06:28;11.45;;;3.45;;
44197;SDS011;30157;55.512;37.764;2024-02-26T07:08:54;8.55;;;3.60;;
44197;SDS011;30157;55.512;37.764;2024-02-26T07:11:20;9.95;;;3.33;;
44197;SDS011;30157;55.512;37.764;2024-02-26T07:13:46;8.10;;;3.72;;
44197;SDS011;30157;55.512;37.764;2024-02-26T07:16:12;10.50;;;3.50;;
44197;SDS011;30157;55.512;37.764;2024-02-26T07:18:41;7.55;;;3.47;;
44197;SDS011;30157;55.512;37.764;2024-02-26T07:21:06;9.45;;;4.13;;
44197;SDS011;30157;55.512;37.764;2024-02-26T07:23:33;7.68;;;3.33;;
44197;SDS011;30157;55.512;37.764;2024-02-26T07:25:58;7.90;;;3.40;;
44197;SDS011;30157;55.512;37.764;2024-02-26T07:28:24;9.02;;;3.60;;
44197;SDS011;30157;55.512;37.764;2024-02-26T07:30:50;11.43;;;3.38;;
44197;SDS011;30157;55.512;37.764;2024-02-26T07:33:16;8.10;;;3.40;;
44197;SDS011;30157;55.512;37.764;2024-02-26T07:35:42;6.65;;;3.70;;
44197;SDS011;30157;55.512;37.764;2024-02-26T07:38:07;10.43;;;3.80;;
44197;SDS011;30157;55.512;37.764;2024-02-26T07:40:33;9.43;;;3.38;;
44197;SDS011;30157;55.512;37.764;2024-02-26T07:42:59;7.93;;;3.88;;
44197;SDS011;30157;55.512;37.764;2024-02-26T07:45:25;8.48;;;3.67;;
44197;SDS011;30157;55.512;37.764;2024-02-26T07:47:51;9.57;;;3.65;;
44197;SDS011;30157;55.512;37.764;2024-02-26T07:50:17;9.60;;;3.83;;
44197;SDS011;30157;55.512;37.764;2024-02-26T07:52:43;10.15;;;3.65;;
44197;SDS011;30157;55.512;37.764;2024-02-26T07:55:10;10.88;;;3.83;;
44197;SDS011;30157;55.512;37.764;2024-02-26T07:57:36;9.88;;;3.08;;
44197;SDS011;30157;55.512;37.764;2024-02-26T08:00:03;10.50;;;3.53;;
44197;SDS011;30157;55.512;37.764;2024-02-26T08:02:32;8.73;;;3.65;;
44197;SDS011;30157;55.512;37.764;2024-02-26T08:04:59;8.93;;;3.42;;
44197;SDS011;30157;55.512;37.764;2024-02-26T08:07:25;11.88;;;3.90;;
44197;SDS011;30157;55.512;37.764;2024-02-26T08:09:50;11.73;;;4.88;;
44197;SDS011;30157;55.512;37.764;2024-02-26T08:12:16;9.88;;;4.07;;
44197;SDS011;30157;55.512;37.764;2024-02-26T08:14:42;10.48;;;4.07;;
44197;SDS011;30157;55.512;37.764;2024-02-26T08:17:09;9.38;;;3.78;;
44197;SDS011;30157;55.512;37.764;2024-02-26T08:19:35;8.73;;;3.33;;
44197;SDS011;30157;55.512;37.764;2024-02-26T08:22:01;10.88;;;4.32;;
44197;SDS011;30157;55.512;37.764;2024-02-26T08:24:27;7.63;;;3.65;;
44197;SDS011;30157;55.512;37.764;2024-02-26T08:26:53;8.63;;;3.55;;
44197;SDS011;30157;55.512;37.764;2024-02-26T08:29:19;10.88;;;3.28;;
44197;SDS011;30157;55.512;37.764;2024-02-26T08:31:45;8.80;;;3.13;;
44197;SDS011;30157;55.512;37.764;2024-02-26T08:34:11;8.45;;;3.60;;
44197;SDS011;30157;55.512;37.764;2024-02-26T08:36:36;8.85;;;3.65;;
44197;SDS011;30157;55.512;37.764;2024-02-26T08:39:02;9.52;;;3.75;;
44197;SDS011;30157;55.512;37.764;2024-02-26T08:41:28;7.95;;;3.30;;
44197;SDS011;30157;55.512;37.764;2024-02-26T08:43:54;10.40;;;3.95;;
44197;SDS011;30157;55.512;37.764;2024-02-26T08:46:20;7.05;;;3.83;;
44197;SDS011;30157;55.512;37.764;2024-02-26T08:48:46;8.65;;;3.50;;
44197;SDS011;30157;55.512;37.764;2024-02-26T08:51:11;6.72;;;3.22;;
44197;SDS011;30157;55.512;37.764;2024-02-26T08:53:38;7.38;;;3.50;;
44197;SDS011;30157;55.512;37.764;2024-02-26T08:56:04;8.45;;;3.33;;
44197;SDS011;30157;55.512;37.764;2024-02-26T08:58:30;9.77;;;3.85;;
44197;SDS011;30157;55.512;37.764;2024-02-26T09:00:56;6.75;;;3.25;;
44197;SDS011;30157;55.512;37.764;2024-02-26T09:03:22;6.28;;;3.28;;
44197;SDS011;30157;55.512;37.764;2024-02-26T09:05:49;7.30;;;3.42;;
44197;SDS011;30157;55.512;37.764;2024-02-26T09:08:15;9.48;;;3.90;;
44197;SDS011;30157;55.512;37.764;2024-02-26T09:10:41;7.57;;;3.40;;
44197;SDS011;30157;55.512;37.764;2024-02-26T09:13:07;8.20;;;3.95;;
44197;SDS011;30157;55.512;37.764;2024-02-26T09:15:33;6.95;;;3.75;;
44197;SDS011;30157;55.512;37.764;2024-02-26T09:17:59;7.75;;;3.70;;
44197;SDS011;30157;55.512;37.764;2024-02-26T09:20:25;10.98;;;4.18;;
44197;SDS011;30157;55.512;37.764;2024-02-26T09:22:50;10.48;;;4.05;;
44197;SDS011;30157;55.512;37.764;2024-02-26T09:25:17;8.18;;;4.43;;
44197;SDS011;30157;55.512;37.764;2024-02-26T09:27:43;7.57;;;3.90;;
44197;SDS011;30157;55.512;37.764;2024-02-26T09:30:10;10.38;;;4.38;;
44197;SDS011;30157;55.512;37.764;2024-02-26T09:32:36;7.28;;;4.15;;
44197;SDS011;30157;55.512;37.764;2024-02-26T09:35:02;10.48;;;4.15;;
44197;SDS011;30157;55.512;37.764;2024-02-26T09:37:29;9.88;;;3.97;;
44197;SDS011;30157;55.512;37.764;2024-02-26T09:39:55;10.48;;;4.22;;
44197;SDS011;30157;55.512;37.764;2024-02-26T09:42:21;7.55;;;4.20;;
44197;SDS011;30157;55.512;37.764;2024-02-26T09:44:50;12.32;;;4.35;;
44197;SDS011;30157;55.512;37.764;2024-02-26T09:47:19;14.45;;;4.43;;
44197;SDS011;30157;55.512;37.764;2024-02-26T09:49:47;9.10;;;4.30;;
44197;SDS011;30157;55.512;37.764;2024-02-26T09:52:14;10.18;;;4.15;;
44197;SDS011;30157;55.512;37.764;2024-02-26T09:54:41;8.50;;;3.83;;
44197;SDS011;30157;55.512;37.764;2024-02-26T09:57:12;10.77;;;4.47;;
44197;SDS011;30157;55.512;37.764;2024-02-26T09:59:41;8.98;;;4.45;;
44197;SDS011;30157;55.512;37.764;2024-02-26T10:02:11;8.00;;;3.90;;
44197;SDS011;30157;55.512;37.764;2024-02-26T10:04:41;11.38;;;4.38;;
44197;SDS011;30157;55.512;37.764;2024-02-26T10:07:11;8.65;;;4.05;;
44197;SDS011;30157;55.512;37.764;2024-02-26T10:09:38;12.57;;;4.70;;
44197;SDS011;30157;55.512;37.764;2024-02-26T10:12:04;10.88;;;4.20;;
44197;SDS011;30157;55.512;37.764;2024-02-26T10:14:32;15.50;;;4.57;;
44197;SDS011;30157;55.512;37.764;2024-02-26T10:16:58;7.88;;;3.85;;
44197;SDS011;30157;55.512;37.764;2024-02-26T10:19:27;8.45;;;4.28;;
44197;SDS011;30157;55.512;37.764;2024-02-26T10:21:57;9.48;;;4.60;;
44197;SDS011;30157;55.512;37.764;2024-02-26T10:24:29;11.20;;;4.60;;
44197;SDS011;30157;55.512;37.764;2024-02-26T10:26:55;10.75;;;4.45;;
44197;SDS011;30157;55.512;37.764;2024-02-26T10:29:24;9.30;;;4.32;;
44197;SDS011;30157;55.512;37.764;2024-02-26T10:31:51;11.82;;;4.40;;
44197;SDS011;30157;55.512;37.764;2024-02-26T10:34:18;8.40;;;3.92;;
44197;SDS011;30157;55.512;37.764;2024-02-26T10:36:44;9.98;;;4.80;;
44197;SDS011;30157;55.512;37.764;2024-02-26T10:39:13;9.70;;;4.78;;
44197;SDS011;30157;55.512;37.764;2024-02-26T10:41:40;10.35;;;4.53;;
44197;SDS011;30157;55.512;37.764;2024-02-26T10:44:10;10.10;;;4.93;;
44197;SDS011;30157;55.512;37.764;2024-02-26T10:46:37;9.73;;;4.10;;
44197;SDS011;30157;55.512;37.764;2024-02-26T10:49:03;9.68;;;4.18;;
44197;SDS011;30157;55.512;37.764;2024-02-26T10:51:30;11.40;;;4.88;;
44197;SDS011;30157;55.512;37.764;2024-02-26T10:53:58;9.65;;;4.47;;
44197;SDS011;30157;55.512;37.764;2024-02-26T10:56:26;13.02;;;4.82;;
44197;SDS011;30157;55.512;37.764;2024-02-26T10:58:53;11.02;;;4.35;;
44197;SDS011;30157;55.512;37.764;2024-02-26T11:01:26;7.28;;;4.10;;
44197;SDS011;30157;55.512;37.764;2024-02-26T11:03:55;9.75;;;4.18;;
44197;SDS011;30157;55.512;37.764;2024-02-26T11:06:22;10.23;;;4.35;;
44197;SDS011;30157;55.512;37.764;2024-02-26T11:08:48;9.77;;;3.90;;
44197;SDS011;30157;55.512;37.764;2024-02-26T11:11:15;10.60;;;4.68;;
44197;SDS011;30157;55.512;37.764;2024-02-26T11:13:44;9.95;;;4.07;;
44197;SDS011;30157;55.512;37.764;2024-02-26T11:16:16;13.88;;;4.93;;
44197;SDS011;30157;55.512;37.764;2024-02-26T11:18:43;12.30;;;5.95;;
44197;SDS011;30157;55.512;37.764;2024-02-26T11:21:17;7.90;;;4.10;;
44197;SDS011;30157;55.512;37.764;2024-02-26T11:23:48;9.05;;;4.95;;
44197;SDS011;30157;55.512;37.764;2024-02-26T11:26:24;11.48;;;4.85;;
44197;SDS011;30157;55.512;37.764;2024-02-26T11:28:52;10.00;;;4.20;;
44197;SDS011;30157;55.512;37.764;2024-02-26T11:31:19;12.55;;;5.00;;
44197;SDS011;30157;55.512;37.764;2024-02-26T11:33:54;11.45;;;4.75;;
44197;SDS011;30157;55.512;37.764;2024-02-26T11:36:26;9.13;;;4.20;;
44197;SDS011;30157;55.512;37.764;2024-02-26T11:38:52;13.15;;;4.57;;
44197;SDS011;30157;55.512;37.764;2024-02-26T11:41:21;10.70;;;4.95;;
44197;SDS011;30157;55.512;37.764;2024-02-26T11:43:51;10.88;;;4.72;;
44197;SDS011;30157;55.512;37.764;2024-02-26T11:46:32;11.98;;;4.72;;
44197;SDS011;30157;55.512;37.764;2024-02-26T11:49:00;9.68;;;4.15;;
44197;SDS011;30157;55.512;37.764;2024-02-26T11:51:28;9.32;;;4.25;;
44197;SDS011;30157;55.512;37.764;2024-02-26T11:54:00;9.63;;;4.28;;
44197;SDS011;30157;55.512;37.764;2024-02-26T11:56:26;12.73;;;4.18;;
44197;SDS011;30157;55.512;37.764;2024-02-26T11:58:53;10.05;;;4.50;;
44197;SDS011;30157;55.512;37.764;2024-02-26T12:01:38;7.65;;;4.25;;
44197;SDS011;30157;55.512;37.764;2024-02-26T12:04:05;11.05;;;4.75;;
44197;SDS011;30157;55.512;37.764;2024-02-26T12:06:43;7.38;;;3.17;;
44197;SDS011;30157;55.512;37.764;2024-02-26T12:09:11;9.07;;;3.88;;
44197;SDS011;30157;55.512;37.764;2024-02-26T12:11:39;11.77;;;4.35;;
44197;SDS011;30157;55.512;37.764;2024-02-26T12:14:05;6.90;;;3.55;;
44197;SDS011;30157;55.512;37.764;2024-02-26T12:16:37;11.15;;;3.85;;
44197;SDS011;30157;55.512;37.764;2024-02-26T12:19:05;8.70;;;3.38;;
44197;SDS011;30157;55.512;37.764;2024-02-26T12:21:35;7.70;;;3.28;;
44197;SDS011;30157;55.512;37.764;2024-02-26T12:24:12;5.03;;;2.95;;
44197;SDS011;30157;55.512;37.764;2024-02-26T12:26:39;9.68;;;3.80;;
44197;SDS011;30157;55.512;37.764;2024-02-26T12:29:06;7.38;;;3.13;;
44197;SDS011;30157;55.512;37.764;2024-02-26T12:31:33;10.18;;;3.45;;
44197;SDS011;30157;55.512;37.764;2024-02-26T12:33:59;7.30;;;3.05;;
44197;SDS011;30157;55.512;37.764;2024-02-26T12:36:26;6.10;;;2.90;;
44197;SDS011;30157;55.512;37.764;2024-02-26T12:38:52;9.10;;;3.53;;
44197;SDS011;30157;55.512;37.764;2024-02-26T12:41:18;6.85;;;3.15;;
44197;SDS011;30157;55.512;37.764;2024-02-26T12:43:46;7.70;;;3.53;;
44197;SDS011;30157;55.512;37.764;2024-02-26T12:46:11;7.55;;;3.20;;
44197;SDS011;30157;55.512;37.764;2024-02-26T12:48:39;7.95;;;3.05;;
44197;SDS011;30157;55.512;37.764;2024-02-26T12:51:06;10.10;;;3.35;;
44197;SDS011;30157;55.512;37.764;2024-02-26T12:53:33;7.50;;;2.88;;
44197;SDS011;30157;55.512;37.764;2024-02-26T12:55:59;6.22;;;2.80;;
44197;SDS011;30157;55.512;37.764;2024-02-26T12:58:25;7.15;;;3.30;;
44197;SDS011;30157;55.512;37.764;2024-02-26T13:00:55;9.18;;;3.55;;
44197;SDS011;30157;55.512;37.764;2024-02-26T13:03:22;7.28;;;3.65;;
44197;SDS011;30157;55.512;37.764;2024-02-26T13:05:49;9.77;;;3.15;;
44197;SDS011;30157;55.512;37.764;2024-02-26T13:08:21;7.18;;;3.45;;
44197;SDS011;30157;55.512;37.764;2024-02-26T13:10:50;5.55;;;2.45;;
44197;SDS011;30157;55.512;37.764;2024-02-26T13:13:20;8.35;;;3.42;;
44197;SDS011;30157;55.512;37.764;2024-02-26T13:15:46;6.35;;;3.35;;
44197;SDS011;30157;55.512;37.764;2024-02-26T13:18:15;7.80;;;3.55;;
44197;SDS011;30157;55.512;37.764;2024-02-26T13:20:41;7.78;;;3.42;;
44197;SDS011;30157;55.512;37.764;2024-02-26T13:23:08;6.80;;;3.25;;
44197;SDS011;30157;55.512;37.764;2024-02-26T13:25:38;7.13;;;3.45;;
44197;SDS011;30157;55.512;37.764;2024-02-26T13:30:55;10.77;;;4.22;;
44197;SDS011;30157;55.512;37.764;2024-02-26T13:33:23;9.77;;;4.10;;
44197;SDS011;30157;55.512;37.764;2024-02-26T13:35:50;11.00;;;3.30;;
44197;SDS011;30157;55.512;37.764;2024-02-26T13:38:16;7.72;;;3.95;;
44197;SDS011;30157;55.512;37.764;2024-02-26T13:40:42;7.80;;;4.13;;
44197;SDS011;30157;55.512;37.764;2024-02-26T13:43:09;7.30;;;3.90;;
44197;SDS011;30157;55.512;37.764;2024-02-26T13:45:35;8.45;;;3.70;;
44197;SDS011;30157;55.512;37.764;2024-02-26T13:48:06;9.25;;;3.38;;
44197;SDS011;30157;55.512;37.764;2024-02-26T13:50:35;10.82;;;4.13;;
44197;SDS011;30157;55.512;37.764;2024-02-26T13:53:01;9.20;;;3.50;;
44197;SDS011;30157;55.512;37.764;2024-02-26T13:55:28;10.38;;;4.18;;
44197;SDS011;30157;55.512;37.764;2024-02-26T13:57:56;8.38;;;3.80;;
44197;SDS011;30157;55.512;37.764;2024-02-26T14:00:29;9.85;;;4.03;;
44197;SDS011;30157;55.512;37.764;2024-02-26T14:03:20;8.40;;;3.38;;
44197;SDS011;30157;55.512;37.764;2024-02-26T14:05:45;7.95;;;3.08;;
44197;SDS011;30157;55.512;37.764;2024-02-26T14:08:12;5.75;;;3.47;;
44197;SDS011;30157;55.512;37.764;2024-02-26T14:10:38;7.93;;;3.50;;
44197;SDS011;30157;55.512;37.764;2024-02-26T14:13:04;7.80;;;3.70;;
44197;SDS011;30157;55.512;37.764;2024-02-26T14:15:33;7.00;;;3.47;;
44197;SDS011;30157;55.512;37.764;2024-02-26T14:18:00;9.77;;;3.47;;
44197;SDS011;30157;55.512;37.764;2024-02-26T14:20:28;9.85;;;3.70;;
44197;SDS011;30157;55.512;37.764;2024-02-26T14:22:54;8.77;;;3.55;;
44197;SDS011;30157;55.512;37.764;2024-02-26T14:25:20;7.25;;;3.65;;
44197;SDS011;30157;55.512;37.764;2024-02-26T14:27:49;7.07;;;3.30;;
44197;SDS011;30157;55.512;37.764;2024-02-26T14:30:15;6.65;;;3.78;;
44197;SDS011;30157;55.512;37.764;2024-02-26T14:32:41;9.23;;;3.47;;